createdAt,value
2022-10-22T00:01:41.191Z,95907.06
2022-10-22T00:04:08.074Z,95908.00
2022-10-22T00:06:35.313Z,95909.59
2022-10-22T00:09:02.130Z,95934.78
2022-10-22T00:11:28.826Z,95929.44
2022-10-22T00:13:55.947Z,95943.91
2022-10-22T00:16:22.558Z,95939.78
2022-10-22T00:18:49.202Z,95932.63
2022-10-22T00:21:15.823Z,95932.00
2022-10-22T00:23:43.448Z,95930.56
2022-10-22T00:26:10.932Z,95925.81
2022-10-22T00:28:38.147Z,95930.88
2022-10-22T00:31:05.335Z,95933.13
2022-10-22T00:33:32.092Z,95937.50
2022-10-22T00:35:58.901Z,95938.84
2022-10-22T00:38:25.651Z,95934.13
2022-10-22T00:40:52.339Z,95920.25
2022-10-22T00:43:20.365Z,95921.34
2022-10-22T00:45:47.313Z,95927.44
2022-10-22T00:48:18.808Z,95924.59
2022-10-22T00:50:58.189Z,95926.72
2022-10-22T00:53:41.588Z,95924.81
2022-10-22T00:56:09.727Z,95916.44
2022-10-22T00:58:39.172Z,95907.59
2022-10-22T01:01:09.257Z,95894.81
2022-10-22T01:03:36.195Z,95890.91
2022-10-22T01:06:05.267Z,95891.97
2022-10-22T01:08:54.516Z,95889.66
2022-10-22T01:11:57.260Z,95886.00
2022-10-22T01:15:02.398Z,95883.47
2022-10-22T01:18:02.617Z,95884.72
2022-10-22T01:21:04.846Z,95893.94
2022-10-22T01:24:15.547Z,95883.16
2022-10-22T01:27:12.694Z,95887.28
2022-10-22T01:29:50.555Z,95901.47
2022-10-22T01:32:23.639Z,95899.34
2022-10-22T01:35:00.303Z,95906.69
2022-10-22T01:37:30.389Z,95892.28
2022-10-22T01:40:00.935Z,95888.66
2022-10-22T01:42:27.883Z,95876.94
2022-10-22T01:44:54.500Z,95878.06
2022-10-22T01:47:44.110Z,95872.72
2022-10-22T01:50:34.365Z,95864.13
2022-10-22T01:53:00.896Z,95869.16
2022-10-22T01:55:33.614Z,95862.22
2022-10-22T01:58:35.499Z,95856.84
2022-10-22T02:01:08.070Z,95864.44
2022-10-22T02:03:42.795Z,95865.09
2022-10-22T02:06:17.451Z,95856.69
2022-10-22T02:08:45.810Z,95847.78
2022-10-22T02:11:14.827Z,95845.72
2022-10-22T02:13:48.767Z,95850.47
2022-10-22T02:16:39.544Z,95849.22
2022-10-22T02:19:15.902Z,95851.72
2022-10-22T02:21:42.839Z,95869.94
2022-10-22T02:24:09.483Z,95870.25
2022-10-22T02:26:42.798Z,95865.31
2022-10-22T02:29:18.846Z,95866.13
2022-10-22T02:31:48.789Z,95875.28
2022-10-22T02:34:28.438Z,95890.13
2022-10-22T02:36:56.245Z,95889.84
2022-10-22T02:39:23.240Z,95891.44
2022-10-22T02:41:49.870Z,95893.28
2022-10-22T02:44:20.514Z,95898.53
2022-10-22T02:46:47.135Z,95898.22
2022-10-22T02:49:14.135Z,95905.47
2022-10-22T02:51:40.726Z,95915.72
2022-10-22T02:54:07.334Z,95911.22
2022-10-22T02:56:34.167Z,95916.16
2022-10-22T02:59:00.777Z,95925.66
2022-10-22T03:01:27.451Z,95932.72
2022-10-22T03:03:54.109Z,95925.38
2022-10-22T03:06:20.739Z,95936.94
2022-10-22T03:08:47.461Z,95949.56
2022-10-22T03:11:14.068Z,95961.66
2022-10-22T03:13:40.728Z,95970.59
2022-10-22T03:16:07.429Z,95976.47
2022-10-22T03:18:34.342Z,95989.53
2022-10-22T03:21:20.470Z,95994.94
2022-10-22T03:23:48.201Z,96001.91
2022-10-22T03:26:15.431Z,95995.88
2022-10-22T03:28:42.527Z,96005.88
2022-10-22T03:31:09.174Z,96011.94
2022-10-22T03:33:35.746Z,96013.97
2022-10-22T03:36:02.475Z,96017.28
2022-10-22T03:38:30.105Z,96015.88
2022-10-22T03:40:56.853Z,96028.06
2022-10-22T03:43:23.645Z,96027.84
2022-10-22T03:45:50.214Z,96038.22
2022-10-22T03:48:16.823Z,96048.00
2022-10-22T03:50:43.403Z,96051.41
2022-10-22T03:53:10.716Z,96058.16
2022-10-22T03:55:38.387Z,96076.38
2022-10-22T03:58:05.616Z,96085.84
2022-10-22T04:00:32.691Z,96077.88
2022-10-22T04:02:59.290Z,96079.06
2022-10-22T04:05:26.068Z,96075.81
2022-10-22T04:07:52.715Z,96095.25
2022-10-22T04:10:19.315Z,96110.38
2022-10-22T04:12:48.787Z,96119.44
2022-10-22T04:15:15.526Z,96127.19
2022-10-22T04:17:42.503Z,96126.81
2022-10-22T04:20:10.042Z,96128.47
2022-10-22T04:22:36.978Z,96136.66
2022-10-22T04:25:04.806Z,96139.63
2022-10-22T04:27:32.594Z,96138.69
2022-10-22T04:29:59.381Z,96143.22
2022-10-22T04:32:29.471Z,96145.53
2022-10-22T04:34:56.065Z,96136.75
2022-10-22T04:37:22.641Z,96133.69
2022-10-22T04:39:49.343Z,96128.53
2022-10-22T04:42:15.969Z,96140.16
2022-10-22T04:44:42.636Z,96140.75
2022-10-22T04:47:09.218Z,96147.38
2022-10-22T04:49:35.807Z,96146.53
2022-10-22T04:52:02.413Z,96138.16
2022-10-22T04:54:32.219Z,96133.50
2022-10-22T04:56:59.934Z,96139.06
2022-10-22T04:59:26.593Z,96140.84
2022-10-22T05:01:53.163Z,96139.69
2022-10-22T05:04:19.890Z,96143.19
2022-10-22T05:06:46.771Z,96138.84
2022-10-22T05:09:19.679Z,96147.41
2022-10-22T05:11:49.143Z,96147.50
2022-10-22T05:14:26.210Z,96144.88
2022-10-22T05:16:53.033Z,96155.59
2022-10-22T05:19:26.481Z,96147.19
2022-10-22T05:21:55.082Z,96144.72
2022-10-22T05:24:22.241Z,96142.69
2022-10-22T05:26:50.957Z,96152.31
2022-10-22T05:29:17.607Z,96159.38
2022-10-22T05:31:44.305Z,96161.06
2022-10-22T05:34:11.289Z,96154.75
2022-10-22T05:36:38.049Z,96163.16
2022-10-22T05:39:04.854Z,96170.16
2022-10-22T05:41:32.909Z,96169.53
2022-10-22T05:44:00.513Z,96177.34
2022-10-22T05:46:30.052Z,96173.53
2022-10-22T05:48:59.416Z,96173.59
2022-10-22T05:51:27.977Z,96178.78
2022-10-22T05:53:57.249Z,96183.09
2022-10-22T05:56:25.165Z,96191.69
2022-10-22T05:58:52.241Z,96180.13
2022-10-22T06:01:30.354Z,96192.16
2022-10-22T06:03:59.302Z,96189.00
2022-10-22T06:06:30.332Z,96203.59
2022-10-22T06:09:01.617Z,96204.72
2022-10-22T06:11:31.092Z,96208.97
2022-10-22T06:14:00.778Z,96215.00
2022-10-22T06:16:29.553Z,96211.06
2022-10-22T06:18:56.322Z,96215.97
2022-10-22T06:21:22.915Z,96215.81
2022-10-22T06:23:49.482Z,96216.81
2022-10-22T06:26:17.871Z,96223.63
2022-10-22T06:28:44.517Z,96220.78
2022-10-22T06:31:11.140Z,96227.00
2022-10-22T06:33:42.314Z,96222.38
2022-10-22T06:36:11.905Z,96228.09
2022-10-22T06:38:39.165Z,96227.97
2022-10-22T06:41:08.305Z,96227.78
2022-10-22T06:43:35.534Z,96233.03
2022-10-22T06:46:04.135Z,96229.22
2022-10-22T06:48:31.238Z,96240.84
2022-10-22T06:51:03.122Z,96243.00
2022-10-22T06:53:30.698Z,96252.06
2022-10-22T06:55:57.544Z,96250.19
2022-10-22T06:58:24.551Z,96246.38
2022-10-22T07:01:03.973Z,96238.78
2022-10-22T07:03:30.586Z,96231.97
2022-10-22T07:06:03.062Z,96235.28
2022-10-22T07:08:30.308Z,96232.41
2022-10-22T07:11:04.875Z,96235.28
2022-10-22T07:13:31.456Z,96228.16
2022-10-22T07:15:58.088Z,96233.22
2022-10-22T07:18:24.821Z,96227.34
2022-10-22T07:20:51.384Z,96222.09
2022-10-22T07:23:18.020Z,96211.13
2022-10-22T07:25:44.955Z,96220.19
2022-10-22T07:28:12.052Z,96213.66
2022-10-22T07:30:39.450Z,96220.81
2022-10-22T07:33:06.422Z,96230.34
2022-10-22T07:35:34.505Z,96226.88
2022-10-22T07:38:01.294Z,96226.53
2022-10-22T07:40:27.975Z,96231.81
2022-10-22T07:42:54.627Z,96233.72
2022-10-22T07:45:21.304Z,96235.28
2022-10-22T07:47:48.543Z,96235.78
2022-10-22T07:50:16.142Z,96231.81
2022-10-22T07:52:43.308Z,96228.31
2022-10-22T07:55:11.183Z,96226.72
2022-10-22T07:57:37.791Z,96228.63
2022-10-22T08:00:07.181Z,96223.53
2022-10-22T08:02:33.831Z,96214.31
2022-10-22T08:05:00.466Z,96227.66
2022-10-22T08:07:27.362Z,96218.91
2022-10-22T08:09:53.982Z,96219.41
2022-10-22T08:12:20.718Z,96222.41
2022-10-22T08:14:47.318Z,96220.34
2022-10-22T08:17:13.906Z,96222.88
2022-10-22T08:19:40.514Z,96220.34
2022-10-22T08:22:07.493Z,96220.97
2022-10-22T08:24:34.180Z,96232.91
2022-10-22T08:27:00.875Z,96236.22
2022-10-22T08:29:27.467Z,96240.03
2022-10-22T08:31:54.358Z,96244.31
2022-10-22T08:34:21.074Z,96245.25
2022-10-22T08:36:47.995Z,96240.28
2022-10-22T08:39:14.679Z,96247.28
2022-10-22T08:42:01.211Z,96241.56
2022-10-22T08:44:42.993Z,96249.81
2022-10-22T08:47:27.150Z,96251.50
2022-10-22T08:49:55.219Z,96263.25
2022-10-22T08:52:22.065Z,96267.06
2022-10-22T08:54:52.490Z,96269.16
2022-10-22T08:57:35.948Z,96275.22
2022-10-22T09:00:05.246Z,96279.03
2022-10-22T09:02:59.531Z,96281.38
2022-10-22T09:05:41.213Z,96289.06
2022-10-22T09:08:12.443Z,96294.00
2022-10-22T09:10:43.778Z,96294.31
2022-10-22T09:13:16.067Z,96301.44
2022-10-22T09:15:44.996Z,96304.75
2022-10-22T09:18:32.054Z,96316.06
2022-10-22T09:21:11.265Z,96319.09
2022-10-22T09:23:55.958Z,96323.03
2022-10-22T09:26:22.579Z,96321.28
2022-10-22T09:28:51.200Z,96319.53
2022-10-22T09:31:18.323Z,96318.88
2022-10-22T09:33:48.852Z,96334.47
2022-10-22T09:36:21.754Z,96330.34
2022-10-22T09:38:50.851Z,96342.28
2022-10-22T09:41:19.877Z,96351.00
2022-10-22T09:43:48.296Z,96361.16
2022-10-22T09:46:21.574Z,96362.78
2022-10-22T09:49:13.251Z,96368.19
2022-10-22T09:51:51.932Z,96370.59
2022-10-22T09:54:25.823Z,96374.28
2022-10-22T09:56:59.382Z,96363.91
2022-10-22T09:59:37.141Z,96363.09
2022-10-22T10:02:20.040Z,96362.44
2022-10-22T10:04:57.838Z,96361.25
2022-10-22T10:07:26.925Z,96367.78
2022-10-22T10:09:54.659Z,96363.31
2022-10-22T10:12:30.827Z,96372.06
2022-10-22T10:15:16.296Z,96372.69
2022-10-22T10:17:48.971Z,96377.66
2022-10-22T10:20:41.095Z,96376.03
2022-10-22T10:23:13.594Z,96374.09
2022-10-22T10:25:40.087Z,96377.25
2022-10-22T10:28:15.459Z,96371.00
2022-10-22T10:30:57.306Z,96375.78
2022-10-22T10:33:41.789Z,96369.66
2022-10-22T10:36:20.951Z,96364.22
2022-10-22T10:39:18.363Z,96367.69
2022-10-22T10:42:28.240Z,96358.69
2022-10-22T10:45:26.793Z,96366.19
2022-10-22T10:48:05.308Z,96363.25
2022-10-22T10:50:42.787Z,96362.81
2022-10-22T10:53:24.511Z,96371.59
2022-10-22T10:56:04.792Z,96372.84
2022-10-22T10:58:34.083Z,96367.00
2022-10-22T11:01:15.373Z,96376.16
2022-10-22T11:03:55.970Z,96367.16
2022-10-22T11:06:25.540Z,96365.53
2022-10-22T11:09:00.172Z,96365.44
2022-10-22T11:11:47.103Z,96361.72
2022-10-22T11:14:23.440Z,96352.34
2022-10-22T11:16:51.828Z,96353.56
2022-10-22T11:19:46.269Z,96353.31
2022-10-22T11:22:26.795Z,96353.19
2022-10-22T11:25:18.286Z,96341.97
2022-10-22T11:28:11.553Z,96340.78
2022-10-22T11:30:40.921Z,96341.84
2022-10-22T11:33:12.811Z,96332.56
2022-10-22T11:35:42.664Z,96339.75
2022-10-22T11:38:15.110Z,96337.69
2022-10-22T11:40:50.439Z,96326.53
2022-10-22T11:43:57.244Z,96337.69
2022-10-22T11:46:23.816Z,96336.44
2022-10-22T11:49:04.847Z,96337.03
2022-10-22T11:51:37.212Z,96338.00
2022-10-22T11:54:29.823Z,96333.25
2022-10-22T11:57:25.439Z,96331.94
2022-10-22T12:00:00.690Z,96340.03
2022-10-22T12:02:45.003Z,96341.34
2022-10-22T12:05:24.011Z,96341.34
2022-10-22T12:07:57.175Z,96359.03
2022-10-22T12:10:28.354Z,96356.47
2022-10-22T12:13:12.810Z,96361.09
2022-10-22T12:15:51.870Z,96371.59
2022-10-22T12:18:18.549Z,96361.94
2022-10-22T12:20:51.044Z,96358.66
2022-10-22T12:23:17.966Z,96349.75
2022-10-22T12:25:44.597Z,96352.31
2022-10-22T12:28:13.259Z,96349.09
2022-10-22T12:30:39.902Z,96345.63
2022-10-22T12:33:18.056Z,96346.78
2022-10-22T12:35:46.734Z,96351.06
2022-10-22T12:38:21.333Z,96355.50
2022-10-22T12:40:51.222Z,96360.47
2022-10-22T12:43:23.859Z,96353.31
2022-10-22T12:45:51.702Z,96358.22
2022-10-22T12:48:30.854Z,96349.97
2022-10-22T12:51:03.903Z,96349.19
2022-10-22T12:53:37.887Z,96355.22
2022-10-22T12:56:07.142Z,96358.56
2022-10-22T12:58:39.628Z,96359.19
2022-10-22T13:01:06.900Z,96358.22
2022-10-22T13:03:41.623Z,96358.69
2022-10-22T13:06:20.302Z,96349.63
2022-10-22T13:09:03.933Z,96353.91
2022-10-22T13:11:38.292Z,96354.25
2022-10-22T13:14:15.855Z,96360.75
2022-10-22T13:16:42.465Z,96365.41
2022-10-22T13:19:47.329Z,96367.94
2022-10-22T13:22:37.766Z,96357.91
2022-10-22T13:25:17.216Z,96363.16
2022-10-22T13:27:48.658Z,96353.63
2022-10-22T13:30:22.763Z,96350.75
2022-10-22T13:32:56.001Z,96348.38
2022-10-22T13:35:24.662Z,96350.09
2022-10-22T13:37:51.440Z,96341.75
2022-10-22T13:40:18.539Z,96346.88
2022-10-22T13:42:45.175Z,96345.31
2022-10-22T13:45:13.773Z,96349.91
2022-10-22T13:47:41.211Z,96342.41
2022-10-22T13:50:14.803Z,96346.56
2022-10-22T13:52:45.136Z,96343.22
2022-10-22T13:55:25.710Z,96349.13
2022-10-22T13:58:10.298Z,96348.50
2022-10-22T14:00:42.321Z,96351.97
2022-10-22T14:03:15.194Z,96347.66
2022-10-22T14:05:41.914Z,96347.03
2022-10-22T14:08:17.839Z,96348.44
2022-10-22T14:10:44.650Z,96346.38
2022-10-22T14:13:12.551Z,96348.44
2022-10-22T14:15:40.830Z,96344.25
2022-10-22T14:18:11.385Z,96352.56
2022-10-22T14:20:40.990Z,96344.31
2022-10-22T14:25:51.126Z,96346.50
2022-10-22T14:28:17.982Z,96343.91
2022-10-22T14:30:45.210Z,96346.78
2022-10-22T14:33:28.992Z,96332.16
2022-10-22T14:35:59.966Z,96344.50
2022-10-22T14:38:26.727Z,96343.78
2022-10-22T14:40:53.335Z,96334.25
2022-10-22T14:43:26.123Z,96338.16
2022-10-22T14:45:52.794Z,96339.84
2022-10-22T14:50:51.193Z,96348.41
2022-10-22T14:53:17.826Z,96348.75
2022-10-22T14:55:47.212Z,96351.53
2022-10-22T14:58:14.427Z,96350.66
2022-10-22T15:00:42.072Z,96348.63
2022-10-22T15:03:08.849Z,96346.38
2022-10-22T15:05:36.349Z,96353.44
2022-10-22T15:08:03.339Z,96353.56
2022-10-22T15:10:29.915Z,96366.25
2022-10-22T15:12:56.525Z,96358.16
2022-10-22T15:15:23.816Z,96357.47
2022-10-22T15:17:51.273Z,96369.81
2022-10-22T15:20:17.969Z,96367.28
2022-10-22T15:22:45.377Z,96374.50
2022-10-22T15:25:13.457Z,96381.91
2022-10-22T15:27:40.195Z,96373.63
2022-10-22T15:30:07.585Z,96376.31
2022-10-22T15:32:34.420Z,96367.03
2022-10-22T15:35:05.960Z,96369.75
2022-10-22T15:37:32.595Z,96378.81
2022-10-22T15:40:00.506Z,96397.69
2022-10-22T15:42:27.086Z,96394.19
2022-10-22T15:45:00.144Z,96385.81
2022-10-22T15:47:29.624Z,96401.25
2022-10-22T15:49:56.434Z,96399.66
2022-10-22T15:52:23.058Z,96401.00
2022-10-22T15:54:49.720Z,96395.13
2022-10-22T15:57:16.416Z,96398.41
2022-10-22T15:59:43.111Z,96400.09
2022-10-22T16:02:11.397Z,96410.97
2022-10-22T16:04:38.684Z,96408.72
2022-10-22T16:07:05.325Z,96419.28
2022-10-22T16:09:31.932Z,96416.63
2022-10-22T16:11:58.569Z,96413.22
2022-10-22T16:14:25.398Z,96423.75
2022-10-22T16:16:54.298Z,96424.78
2022-10-22T16:19:22.733Z,96431.81
2022-10-22T16:21:52.202Z,96433.41
2022-10-22T16:24:19.667Z,96431.34
2022-10-22T16:26:46.606Z,96440.66
2022-10-22T16:29:13.510Z,96431.97
2022-10-22T16:31:42.860Z,96442.38
2022-10-22T16:34:09.726Z,96442.13
2022-10-22T16:36:37.176Z,96442.81
2022-10-22T16:39:05.226Z,96450.69
2022-10-22T16:41:37.946Z,96454.97
2022-10-22T16:44:07.839Z,96457.41
2022-10-22T16:46:36.772Z,96466.28
2022-10-22T16:49:03.356Z,96468.81
2022-10-22T16:51:30.093Z,96467.91
2022-10-22T16:53:57.535Z,96474.50
2022-10-22T16:56:25.499Z,96472.75
2022-10-22T16:58:54.783Z,96480.81
2022-10-22T17:01:24.260Z,96473.81
2022-10-22T17:03:50.884Z,96478.94
2022-10-22T17:06:18.247Z,96481.03
2022-10-22T17:08:45.054Z,96487.50
2022-10-22T17:11:17.754Z,96483.50
2022-10-22T17:13:48.726Z,96487.84
2022-10-22T17:16:17.271Z,96485.25
2022-10-22T17:21:18.532Z,96489.75
2022-10-22T17:23:45.852Z,96497.56
2022-10-22T17:26:20.430Z,96505.22
2022-10-22T17:28:47.969Z,96504.13
2022-10-22T17:31:25.850Z,96502.53
2022-10-22T17:33:54.840Z,96513.88
2022-10-22T17:36:22.920Z,96515.16
2022-10-22T17:38:55.022Z,96518.31
2022-10-22T17:41:25.754Z,96523.09
2022-10-22T17:43:52.407Z,96529.00
2022-10-22T17:46:22.259Z,96532.34
2022-10-22T17:48:53.629Z,96534.41
2022-10-22T17:51:20.883Z,96539.19
2022-10-22T17:53:48.170Z,96538.53
2022-10-22T17:56:17.305Z,96540.13
2022-10-22T17:58:44.055Z,96543.75
2022-10-22T18:01:20.958Z,96535.97
2022-10-22T18:03:47.775Z,96546.78
2022-10-22T18:06:14.463Z,96538.34
2022-10-22T18:08:41.183Z,96539.94
2022-10-22T18:11:12.960Z,96546.13
2022-10-22T18:13:39.575Z,96542.59
2022-10-22T18:16:06.497Z,96536.38
2022-10-22T18:18:35.135Z,96545.97
2022-10-22T18:21:02.450Z,96545.97
2022-10-22T18:23:29.084Z,96547.06
2022-10-22T18:25:55.828Z,96548.47
2022-10-22T18:28:22.482Z,96547.16
2022-10-22T18:30:49.203Z,96555.72
2022-10-22T18:33:19.022Z,96551.88
2022-10-22T18:35:48.429Z,96549.47
2022-10-22T18:38:15.095Z,96550.28
2022-10-22T18:40:46.688Z,96556.00
2022-10-22T18:43:13.422Z,96557.91
2022-10-22T18:45:44.533Z,96558.47
2022-10-22T18:48:13.833Z,96563.88
2022-10-22T18:50:40.480Z,96561.72
2022-10-22T18:53:07.069Z,96563.81
2022-10-22T18:55:34.904Z,96567.75
2022-10-22T18:58:01.474Z,96571.53
2022-10-22T19:00:28.114Z,96568.84
2022-10-22T19:02:54.976Z,96567.44
2022-10-22T19:05:21.839Z,96569.75
2022-10-22T19:07:50.297Z,96571.81
2022-10-22T19:10:17.543Z,96574.44
2022-10-22T19:12:44.156Z,96580.44
2022-10-22T19:15:10.897Z,96582.66
2022-10-22T19:17:37.569Z,96579.59
2022-10-22T19:20:04.710Z,96577.63
2022-10-22T19:22:31.957Z,96574.31
2022-10-22T19:24:58.961Z,96578.97
2022-10-22T19:27:25.615Z,96578.84
2022-10-22T19:29:52.282Z,96578.75
2022-10-22T19:32:20.138Z,96578.06
2022-10-22T19:34:47.242Z,96580.78
2022-10-22T19:37:13.838Z,96589.47
2022-10-22T19:39:40.433Z,96588.97
2022-10-22T19:42:07.053Z,96588.75
2022-10-22T19:44:33.730Z,96589.16
2022-10-22T19:47:00.318Z,96589.19
2022-10-22T19:49:26.957Z,96588.97
2022-10-22T19:51:53.538Z,96586.78
2022-10-22T19:54:20.605Z,96590.56
2022-10-22T19:56:48.101Z,96587.75
2022-10-22T19:59:16.156Z,96594.59
2022-10-22T20:01:43.087Z,96590.88
2022-10-22T20:04:15.147Z,96584.00
2022-10-22T20:06:42.958Z,96586.38
2022-10-22T20:09:11.160Z,96576.72
2022-10-22T20:11:37.937Z,96579.59
2022-10-22T20:14:04.564Z,96580.38
2022-10-22T20:16:31.699Z,96579.00
2022-10-22T20:19:02.983Z,96581.22
2022-10-22T20:21:29.969Z,96581.38
2022-10-22T20:23:57.550Z,96583.16
2022-10-22T20:26:27.861Z,96579.25
2022-10-22T20:28:55.807Z,96579.00
2022-10-22T20:31:24.287Z,96573.78
2022-10-22T20:33:51.242Z,96571.38
2022-10-22T20:36:22.388Z,96568.03
2022-10-22T20:38:50.267Z,96570.16
2022-10-22T20:41:20.655Z,96557.91
2022-10-22T20:43:49.233Z,96573.47
2022-10-22T20:46:27.963Z,96558.22
2022-10-22T20:48:58.389Z,96567.00
2022-10-22T20:51:25.009Z,96554.22
2022-10-22T20:53:51.665Z,96566.09
2022-10-22T20:56:19.516Z,96556.34
2022-10-22T20:58:49.477Z,96559.63
2022-10-22T21:01:22.208Z,96556.34
2022-10-22T21:03:51.404Z,96554.00
2022-10-22T21:06:22.920Z,96559.06
2022-10-22T21:08:50.681Z,96560.06
2022-10-22T21:11:18.460Z,96568.22
2022-10-22T21:13:45.028Z,96562.84
2022-10-22T21:16:13.930Z,96557.91
2022-10-22T21:18:40.800Z,96557.03
2022-10-22T21:21:08.462Z,96564.25
2022-10-22T21:23:36.606Z,96562.84
2022-10-22T21:26:03.394Z,96560.53
2022-10-22T21:31:06.839Z,96568.44
2022-10-22T21:33:38.062Z,96571.81
2022-10-22T21:36:06.144Z,96563.50
2022-10-22T21:38:33.412Z,96563.16
2022-10-22T21:41:05.233Z,96547.22
2022-10-22T21:43:31.793Z,96553.38
2022-10-22T21:46:08.854Z,96551.28
2022-10-22T21:48:36.521Z,96557.84
2022-10-22T21:51:12.177Z,96565.63
2022-10-22T21:53:39.536Z,96568.25
2022-10-22T21:56:07.127Z,96562.00
2022-10-22T21:58:35.533Z,96571.91
2022-10-22T22:01:02.804Z,96570.22
2022-10-22T22:03:29.450Z,96568.78
2022-10-22T22:06:01.714Z,96574.94
2022-10-22T22:08:28.397Z,96573.19
2022-10-22T22:11:02.686Z,96565.19
2022-10-22T22:13:29.311Z,96565.19
2022-10-22T22:16:03.422Z,96563.97
2022-10-22T22:18:31.098Z,96554.59
2022-10-22T22:20:59.073Z,96556.13
2022-10-22T22:23:26.330Z,96562.50
2022-10-22T22:25:52.988Z,96554.97
2022-10-22T22:28:19.565Z,96557.78
2022-10-22T22:30:46.138Z,96553.28
2022-10-22T22:33:12.759Z,96556.28
2022-10-22T22:38:10.793Z,96555.97
2022-10-22T22:40:41.227Z,96552.13
2022-10-22T22:43:08.547Z,96553.00
2022-10-22T22:45:35.658Z,96554.19
2022-10-22T22:48:03.154Z,96549.16
2022-10-22T22:50:30.502Z,96556.56
2022-10-22T22:52:57.125Z,96553.72
2022-10-22T22:55:23.749Z,96553.44
2022-10-22T22:57:50.511Z,96550.97
2022-10-22T23:00:17.342Z,96554.25
2022-10-22T23:02:44.210Z,96549.00
2022-10-22T23:05:11.125Z,96545.06
2022-10-22T23:07:37.685Z,96541.31
2022-10-22T23:10:04.424Z,96537.53
2022-10-22T23:12:30.996Z,96532.16
2022-10-22T23:15:02.018Z,96539.97
2022-10-22T23:17:28.896Z,96534.59
2022-10-22T23:19:55.510Z,96538.78
2022-10-22T23:22:22.080Z,96527.56
2022-10-22T23:24:48.632Z,96533.81
2022-10-22T23:27:15.224Z,96542.63
2022-10-22T23:29:41.807Z,96533.91
2022-10-22T23:32:14.311Z,96530.13
2022-10-22T23:34:40.961Z,96521.53
2022-10-22T23:37:07.650Z,96522.94
2022-10-22T23:39:34.295Z,96518.25
2022-10-22T23:42:00.944Z,96519.38
2022-10-22T23:44:27.789Z,96523.56
2022-10-22T23:46:55.230Z,96527.34
2022-10-22T23:49:21.861Z,96528.34
2022-10-22T23:51:48.505Z,96524.13
2022-10-22T23:54:18.115Z,96524.75
2022-10-22T23:56:45.151Z,96508.44
2022-10-22T23:59:11.752Z,96516.50
